Little Marsh, Pennsylvania
Current Conditions -  °F | °C
As of 4:55 PM on Wednesday 28 Jan 2015 (Local Time) from KN38 Reporting Station
Clear Clear  
Wind Chill: 16°   Ceiling: Unl
Heat Index: 25°   Visibility: 10mi
Dew Point:   Wind: 8mph
Humidity: 34%   Direction: 310°NW
Pressure: 30.19"   Gusts: NA
Location:  41.9252°N, 77.5198°W
Report Text: KN38 282155Z AUTO 31007KT 10SM CLR M04/M18 A3019 RMK AO2
Loading
Personal Weather Stations






























Interactive Weather Map New forecast layout! Learn more

10-Day Weather Forecast

Advertisements
Track Severe Weather on mobile